Aroma, Missouri
Current Conditions -  °F | °C
As of 8:35 AM on Thursday 29 Jan 2015 (Local Time) from KHFJ Reporting Station
Overcast Overcast  
Wind Chill: 32°   Ceiling: 2000
Heat Index: 41°   Visibility: 10mi
Dew Point: 34°   Wind: 18mph
Humidity: 76%   Direction: 330°NNW
Pressure: 30.2"   Gusts: 25mph
Location:  36.8998°N, 94.263°W
Report Text: KHFJ 291435Z AUTO 33016G22KT 10SM OVC020 05/01 A3020 RMK AO2
Loading
Personal Weather Stations






























Interactive Weather Map New forecast layout! Learn more

10-Day Weather Forecast

Advertisements
Track Severe Weather on mobile